sensor_id;sensor_type;location;lat;lon;timestamp;pressure;altitude;pressure_sealevel;temperature;humidity
39275;BME280;24980;48.874;2.332;2024-03-22T00:01:37;101939.77;;;25.54;45.04
39275;BME280;24980;48.874;2.332;2024-03-22T00:04:07;101934.51;;;25.54;45.04
39275;BME280;24980;48.874;2.332;2024-03-22T00:06:38;101938.58;;;25.53;45.04
39275;BME280;24980;48.874;2.332;2024-03-22T00:09:11;101940.28;;;25.54;45.04
39275;BME280;24980;48.874;2.332;2024-03-22T00:11:44;101939.34;;;25.53;45.04
39275;BME280;24980;48.874;2.332;2024-03-22T00:14:12;101934.42;;;25.53;45.05
39275;BME280;24980;48.874;2.332;2024-03-22T00:16:40;101939.77;;;25.54;45.05
39275;BME280;24980;48.874;2.332;2024-03-22T00:19:10;101934.68;;;25.54;45.06
39275;BME280;24980;48.874;2.332;2024-03-22T00:21:41;101937.39;;;25.54;45.08
39275;BME280;24980;48.874;2.332;2024-03-22T00:24:11;101934.84;;;25.54;45.12
39275;BME280;24980;48.874;2.332;2024-03-22T00:26:42;101932.38;;;25.54;45.15
39275;BME280;24980;48.874;2.332;2024-03-22T00:29:12;101929.08;;;25.54;45.18
39275;BME280;24980;48.874;2.332;2024-03-22T00:31:42;101927.80;;;25.53;45.21
39275;BME280;24980;48.874;2.332;2024-03-22T00:34:13;101923.73;;;25.53;45.25
39275;BME280;24980;48.874;2.332;2024-03-22T00:36:43;101919.66;;;25.53;45.29
39275;BME280;24980;48.874;2.332;2024-03-22T00:39:14;101912.86;;;25.53;45.32
39275;BME280;24980;48.874;2.332;2024-03-22T00:41:44;101905.98;;;25.53;45.35
39275;BME280;24980;48.874;2.332;2024-03-22T00:44:14;101900.50;;;25.52;45.38
39275;BME280;24980;48.874;2.332;2024-03-22T00:46:45;101897.84;;;25.53;45.40
39275;BME280;24980;48.874;2.332;2024-03-22T00:49:15;101896.77;;;25.52;45.42
39275;BME280;24980;48.874;2.332;2024-03-22T00:51:50;101888.53;;;25.52;45.45
39275;BME280;24980;48.874;2.332;2024-03-22T00:54:17;101891.59;;;25.52;45.48
39275;BME280;24980;48.874;2.332;2024-03-22T00:56:49;101890.99;;;25.52;45.50
39275;BME280;24980;48.874;2.332;2024-03-22T00:59:18;101891.42;;;25.52;45.52
39275;BME280;24980;48.874;2.332;2024-03-22T01:01:48;101890.31;;;25.52;45.53
39275;BME280;24980;48.874;2.332;2024-03-22T01:04:19;101892.09;;;25.52;45.56
39275;BME280;24980;48.874;2.332;2024-03-22T01:06:49;101889.47;;;25.51;45.57
39275;BME280;24980;48.874;2.332;2024-03-22T01:09:19;101886.33;;;25.51;45.57
39275;BME280;24980;48.874;2.332;2024-03-22T01:11:55;101886.07;;;25.51;45.58
39275;BME280;24980;48.874;2.332;2024-03-22T01:14:20;101875.29;;;25.51;45.59
39275;BME280;24980;48.874;2.332;2024-03-22T01:16:51;101874.44;;;25.51;45.59
39275;BME280;24980;48.874;2.332;2024-03-22T01:19:24;101873.25;;;25.51;45.60
39275;BME280;24980;48.874;2.332;2024-03-22T01:21:51;101876.14;;;25.51;45.61
39275;BME280;24980;48.874;2.332;2024-03-22T01:24:21;101874.27;;;25.51;45.61
39275;BME280;24980;48.874;2.332;2024-03-22T01:26:52;101877.24;;;25.51;45.62
39275;BME280;24980;48.874;2.332;2024-03-22T01:29:23;101875.89;;;25.50;45.62
39275;BME280;24980;48.874;2.332;2024-03-22T01:31:53;101874.02;;;25.50;45.62
39275;BME280;24980;48.874;2.332;2024-03-22T01:34:24;101869.19;;;25.49;45.63
39275;BME280;24980;48.874;2.332;2024-03-22T01:36:54;101865.02;;;25.49;45.64
39275;BME280;24980;48.874;2.332;2024-03-22T01:39:24;101862.98;;;25.49;45.65
39275;BME280;24980;48.874;2.332;2024-03-22T01:41:55;101859.25;;;25.49;45.66
39275;BME280;24980;48.874;2.332;2024-03-22T01:44:29;101860.87;;;25.48;45.69
39275;BME280;24980;48.874;2.332;2024-03-22T01:46:59;101854.16;;;25.48;45.71
39275;BME280;24980;48.874;2.332;2024-03-22T01:49:27;101851.87;;;25.48;45.73
39275;BME280;24980;48.874;2.332;2024-03-22T01:51:58;101850.09;;;25.47;45.74
39275;BME280;24980;48.874;2.332;2024-03-22T01:54:28;101846.19;;;25.47;45.76
39275;BME280;24980;48.874;2.332;2024-03-22T01:57:00;101844.40;;;25.48;45.80
39275;BME280;24980;48.874;2.332;2024-03-22T01:59:30;101842.78;;;25.47;45.83
39275;BME280;24980;48.874;2.332;2024-03-22T02:01:59;101845.08;;;25.47;45.85
39275;BME280;24980;48.874;2.332;2024-03-22T02:04:32;101846.19;;;25.47;45.88
39275;BME280;24980;48.874;2.332;2024-03-22T02:07:00;101843.30;;;25.47;45.88
39275;BME280;24980;48.874;2.332;2024-03-22T02:09:30;101842.62;;;25.46;45.88
39275;BME280;24980;48.874;2.332;2024-03-22T02:12:02;101840.24;;;25.46;45.90
39275;BME280;24980;48.874;2.332;2024-03-22T02:14:33;101836.20;;;25.46;45.91
39275;BME280;24980;48.874;2.332;2024-03-22T02:17:05;101834.34;;;25.45;45.92
39275;BME280;24980;48.874;2.332;2024-03-22T02:19:32;101839.34;;;25.46;45.92
39275;BME280;24980;48.874;2.332;2024-03-22T02:22:03;101837.13;;;25.46;45.93
39275;BME280;24980;48.874;2.332;2024-03-22T02:24:33;101835.44;;;25.46;45.92
39275;BME280;24980;48.874;2.332;2024-03-22T02:27:05;101835.44;;;25.46;45.92
39275;BME280;24980;48.874;2.332;2024-03-22T02:29:34;101831.70;;;25.46;45.92
39275;BME280;24980;48.874;2.332;2024-03-22T02:32:05;101823.55;;;25.45;45.92
39275;BME280;24980;48.874;2.332;2024-03-22T02:34:35;101823.98;;;25.46;45.92
39275;BME280;24980;48.874;2.332;2024-03-22T02:37:08;101818.63;;;25.45;45.92
39275;BME280;24980;48.874;2.332;2024-03-22T02:39:36;101816.00;;;25.45;45.92
39275;BME280;24980;48.874;2.332;2024-03-22T02:42:07;101814.81;;;25.46;45.91
39275;BME280;24980;48.874;2.332;2024-03-22T02:44:37;101812.74;;;25.46;45.91
39275;BME280;24980;48.874;2.332;2024-03-22T02:47:09;101805.02;;;25.47;45.90
39275;BME280;24980;48.874;2.332;2024-03-22T02:49:39;101796.78;;;25.46;45.90
39275;BME280;24980;48.874;2.332;2024-03-22T02:52:09;101793.67;;;25.46;45.89
39275;BME280;24980;48.874;2.332;2024-03-22T02:54:41;101789.48;;;25.46;45.89
39275;BME280;24980;48.874;2.332;2024-03-22T02:57:10;101787.23;;;25.46;45.88
39275;BME280;24980;48.874;2.332;2024-03-22T02:59:41;101786.12;;;25.46;45.88
39275;BME280;24980;48.874;2.332;2024-03-22T03:02:10;101784.39;;;25.46;45.87
39275;BME280;24980;48.874;2.332;2024-03-22T03:04:41;101784.30;;;25.47;45.87
39275;BME280;24980;48.874;2.332;2024-03-22T03:07:11;101783.29;;;25.47;45.87
39275;BME280;24980;48.874;2.332;2024-03-22T03:09:42;101777.77;;;25.46;45.87
39275;BME280;24980;48.874;2.332;2024-03-22T03:12:12;101774.97;;;25.47;45.87
39275;BME280;24980;48.874;2.332;2024-03-22T03:14:46;101772.93;;;25.47;45.87
39275;BME280;24980;48.874;2.332;2024-03-22T03:17:13;101772.34;;;25.47;45.87
39275;BME280;24980;48.874;2.332;2024-03-22T03:19:44;101771.06;;;25.47;45.87
39275;BME280;24980;48.874;2.332;2024-03-22T03:22:15;101768.47;;;25.46;45.88
39275;BME280;24980;48.874;2.332;2024-03-22T03:24:45;101765.08;;;25.44;45.88
39275;BME280;24980;48.874;2.332;2024-03-22T03:27:16;101760.66;;;25.44;45.90
39275;BME280;24980;48.874;2.332;2024-03-22T03:29:51;101755.74;;;25.44;45.90
39275;BME280;24980;48.874;2.332;2024-03-22T03:32:17;101752.27;;;25.43;45.91
39275;BME280;24980;48.874;2.332;2024-03-22T03:34:49;101751.58;;;25.43;45.91
39275;BME280;24980;48.874;2.332;2024-03-22T03:37:18;101745.85;;;25.42;45.93
39275;BME280;24980;48.874;2.332;2024-03-22T03:39:50;101742.55;;;25.42;45.94
39275;BME280;24980;48.874;2.332;2024-03-22T03:42:19;101742.37;;;25.43;45.93
39275;BME280;24980;48.874;2.332;2024-03-22T03:44:49;101738.98;;;25.42;45.95
39275;BME280;24980;48.874;2.332;2024-03-22T03:47:20;101736.34;;;25.41;45.97
39275;BME280;24980;48.874;2.332;2024-03-22T03:49:50;101731.51;;;25.42;45.99
39275;BME280;24980;48.874;2.332;2024-03-22T03:52:21;101731.67;;;25.43;45.99
39275;BME280;24980;48.874;2.332;2024-03-22T03:54:51;101734.27;;;25.43;45.99
39275;BME280;24980;48.874;2.332;2024-03-22T03:57:21;101736.30;;;25.44;45.99
39275;BME280;24980;48.874;2.332;2024-03-22T03:59:52;101729.27;;;25.44;45.98
39275;BME280;24980;48.874;2.332;2024-03-22T04:02:22;101725.19;;;25.44;45.99
39275;BME280;24980;48.874;2.332;2024-03-22T04:04:52;101719.16;;;25.44;45.99
39275;BME280;24980;48.874;2.332;2024-03-22T04:07:23;101720.61;;;25.44;46.00
39275;BME280;24980;48.874;2.332;2024-03-22T04:09:53;101716.53;;;25.43;46.00
39275;BME280;24980;48.874;2.332;2024-03-22T04:12:24;101715.77;;;25.43;46.00
39275;BME280;24980;48.874;2.332;2024-03-22T04:14:54;101715.27;;;25.43;46.00
39275;BME280;24980;48.874;2.332;2024-03-22T04:17:24;101714.53;;;25.43;46.00
39275;BME280;24980;48.874;2.332;2024-03-22T04:19:59;101708.59;;;25.42;46.00
39275;BME280;24980;48.874;2.332;2024-03-22T04:22:25;101706.72;;;25.42;45.99
39275;BME280;24980;48.874;2.332;2024-03-22T04:24:55;101707.83;;;25.42;45.99
39275;BME280;24980;48.874;2.332;2024-03-22T04:27:25;101709.61;;;25.42;45.99
39275;BME280;24980;48.874;2.332;2024-03-22T04:29:57;101709.27;;;25.42;45.99
39275;BME280;24980;48.874;2.332;2024-03-22T04:32:26;101707.91;;;25.42;45.97
39275;BME280;24980;48.874;2.332;2024-03-22T04:34:59;101705.79;;;25.42;45.97
39275;BME280;24980;48.874;2.332;2024-03-22T04:37:26;101701.98;;;25.41;45.96
39275;BME280;24980;48.874;2.332;2024-03-22T04:39:58;101703.59;;;25.41;45.96
39275;BME280;24980;48.874;2.332;2024-03-22T04:42:27;101701.12;;;25.40;45.97
39275;BME280;24980;48.874;2.332;2024-03-22T04:44:57;101701.56;;;25.40;45.97
39275;BME280;24980;48.874;2.332;2024-03-22T04:47:28;101701.89;;;25.40;45.96
39275;BME280;24980;48.874;2.332;2024-03-22T04:49:59;101700.88;;;25.40;45.95
39275;BME280;24980;48.874;2.332;2024-03-22T04:52:29;101699.77;;;25.40;45.95
39275;BME280;24980;48.874;2.332;2024-03-22T04:54:59;101698.59;;;25.40;45.94
39275;BME280;24980;48.874;2.332;2024-03-22T04:57:29;101700.45;;;25.40;45.93
39275;BME280;24980;48.874;2.332;2024-03-22T05:00:00;101705.38;;;25.40;45.92
39275;BME280;24980;48.874;2.332;2024-03-22T05:02:32;101705.28;;;25.41;45.91
39275;BME280;24980;48.874;2.332;2024-03-22T05:05:00;101701.21;;;25.41;45.91
39275;BME280;24980;48.874;2.332;2024-03-22T05:07:30;101702.57;;;25.41;45.89
39275;BME280;24980;48.874;2.332;2024-03-22T05:10:01;101697.48;;;25.41;45.88
39275;BME280;24980;48.874;2.332;2024-03-22T05:12:32;101697.22;;;25.41;45.87
39275;BME280;24980;48.874;2.332;2024-03-22T05:15:06;101694.34;;;25.41;45.87
39275;BME280;24980;48.874;2.332;2024-03-22T05:17:34;101696.97;;;25.40;45.86
39275;BME280;24980;48.874;2.332;2024-03-22T05:20:03;101693.32;;;25.41;45.86
39275;BME280;24980;48.874;2.332;2024-03-22T05:22:33;101696.97;;;25.41;45.86
39275;BME280;24980;48.874;2.332;2024-03-22T05:25:04;101702.23;;;25.41;45.86
39275;BME280;24980;48.874;2.332;2024-03-22T05:27:34;101701.64;;;25.41;45.85
39275;BME280;24980;48.874;2.332;2024-03-22T05:30:05;101701.98;;;25.40;45.86
39275;BME280;24980;48.874;2.332;2024-03-22T05:32:36;101694.55;;;25.39;45.86
39275;BME280;24980;48.874;2.332;2024-03-22T05:35:06;101690.73;;;25.39;45.86
39275;BME280;24980;48.874;2.332;2024-03-22T05:37:36;101686.14;;;25.39;45.87
39275;BME280;24980;48.874;2.332;2024-03-22T05:40:10;101678.67;;;25.39;45.86
39275;BME280;24980;48.874;2.332;2024-03-22T05:42:40;101677.06;;;25.39;45.87
39275;BME280;24980;48.874;2.332;2024-03-22T05:45:08;101680.38;;;25.39;45.87
39275;BME280;24980;48.874;2.332;2024-03-22T05:47:38;101679.86;;;25.39;45.88
39275;BME280;24980;48.874;2.332;2024-03-22T05:50:08;101676.47;;;25.39;45.88
39275;BME280;24980;48.874;2.332;2024-03-22T05:52:39;101678.05;;;25.40;45.90
39275;BME280;24980;48.874;2.332;2024-03-22T05:55:09;101682.46;;;25.40;45.92
39275;BME280;24980;48.874;2.332;2024-03-22T05:57:39;101682.88;;;25.41;45.93
39275;BME280;24980;48.874;2.332;2024-03-22T06:00:10;101682.45;;;25.41;45.94
39275;BME280;24980;48.874;2.332;2024-03-22T06:02:40;101683.30;;;25.42;45.95
39275;BME280;24980;48.874;2.332;2024-03-22T06:05:11;101687.24;;;25.45;45.95
39275;BME280;24980;48.874;2.332;2024-03-22T06:07:41;101690.77;;;25.47;45.96
39275;BME280;24980;48.874;2.332;2024-03-22T06:10:11;101688.98;;;25.48;45.96
39275;BME280;24980;48.874;2.332;2024-03-22T06:12:42;101690.92;;;25.50;45.96
39275;BME280;24980;48.874;2.332;2024-03-22T06:15:12;101686.42;;;25.51;45.97
39275;BME280;24980;48.874;2.332;2024-03-22T06:17:42;101689.94;;;25.53;45.95
39275;BME280;24980;48.874;2.332;2024-03-22T06:20:13;101690.06;;;25.56;45.93
39275;BME280;24980;48.874;2.332;2024-03-22T06:22:43;101691.59;;;25.56;45.94
39275;BME280;24980;48.874;2.332;2024-03-22T06:25:13;101691.08;;;25.57;45.96
39275;BME280;24980;48.874;2.332;2024-03-22T06:27:44;101693.95;;;25.58;45.98
39275;BME280;24980;48.874;2.332;2024-03-22T06:30:14;101692.09;;;25.59;45.99
39275;BME280;24980;48.874;2.332;2024-03-22T06:32:45;101691.58;;;25.59;45.99
39275;BME280;24980;48.874;2.332;2024-03-22T06:35:15;101691.20;;;25.59;45.99
39275;BME280;24980;48.874;2.332;2024-03-22T06:37:45;101687.98;;;25.59;45.99
39275;BME280;24980;48.874;2.332;2024-03-22T06:40:16;101686.14;;;25.59;46.00
39275;BME280;24980;48.874;2.332;2024-03-22T06:42:45;101687.08;;;25.59;46.00
39275;BME280;24980;48.874;2.332;2024-03-22T06:45:16;101686.57;;;25.59;46.01
39275;BME280;24980;48.874;2.332;2024-03-22T06:47:46;101686.28;;;25.59;46.00
39275;BME280;24980;48.874;2.332;2024-03-22T06:50:16;101680.16;;;25.59;45.99
39275;BME280;24980;48.874;2.332;2024-03-22T06:52:47;101681.44;;;25.61;45.98
39275;BME280;24980;48.874;2.332;2024-03-22T06:55:17;101677.27;;;25.61;45.96
39275;BME280;24980;48.874;2.332;2024-03-22T06:57:47;101677.31;;;25.62;45.95
39275;BME280;24980;48.874;2.332;2024-03-22T07:00:17;101680.45;;;25.63;45.95
39275;BME280;24980;48.874;2.332;2024-03-22T07:02:47;101681.22;;;25.63;45.94
39275;BME280;24980;48.874;2.332;2024-03-22T07:05:17;101678.33;;;25.63;45.96
39275;BME280;24980;48.874;2.332;2024-03-22T07:07:47;101675.28;;;25.63;45.95
39275;BME280;24980;48.874;2.332;2024-03-22T07:10:20;101673.07;;;25.63;45.95
39275;BME280;24980;48.874;2.332;2024-03-22T07:12:48;101671.45;;;25.62;45.95
39275;BME280;24980;48.874;2.332;2024-03-22T07:15:18;101670.73;;;25.62;45.95
39275;BME280;24980;48.874;2.332;2024-03-22T07:17:49;101669.29;;;25.61;45.95
39275;BME280;24980;48.874;2.332;2024-03-22T07:20:19;101667.08;;;25.61;45.94
39275;BME280;24980;48.874;2.332;2024-03-22T07:22:49;101668.53;;;25.61;45.95
39275;BME280;24980;48.874;2.332;2024-03-22T07:25:19;101664.54;;;25.60;45.96
39275;BME280;24980;48.874;2.332;2024-03-22T07:27:50;101664.11;;;25.61;45.95
39275;BME280;24980;48.874;2.332;2024-03-22T07:30:21;101662.24;;;25.61;45.94
39275;BME280;24980;48.874;2.332;2024-03-22T07:32:56;101662.16;;;25.61;45.94
39275;BME280;24980;48.874;2.332;2024-03-22T07:35:20;101661.27;;;25.62;45.93
39275;BME280;24980;48.874;2.332;2024-03-22T07:37:50;101661.94;;;25.64;45.91
39275;BME280;24980;48.874;2.332;2024-03-22T07:40:21;101658.03;;;25.65;45.88
39275;BME280;24980;48.874;2.332;2024-03-22T07:42:51;101657.06;;;25.66;45.87
39275;BME280;24980;48.874;2.332;2024-03-22T07:45:21;101652.78;;;25.63;45.90
39275;BME280;24980;48.874;2.332;2024-03-22T07:47:51;101644.80;;;25.59;45.94
39275;BME280;24980;48.874;2.332;2024-03-22T07:50:21;101644.52;;;25.55;46.01
39275;BME280;24980;48.874;2.332;2024-03-22T07:52:52;101637.86;;;25.51;46.06
39275;BME280;24980;48.874;2.332;2024-03-22T07:55:23;101638.81;;;25.49;46.09
39275;BME280;24980;48.874;2.332;2024-03-22T07:57:52;101635.25;;;25.49;46.12
39275;BME280;24980;48.874;2.332;2024-03-22T08:00:23;101638.73;;;25.48;46.14
39275;BME280;24980;48.874;2.332;2024-03-22T08:02:53;101637.62;;;25.49;46.15
39275;BME280;24980;48.874;2.332;2024-03-22T08:05:24;101638.39;;;25.48;46.15
39275;BME280;24980;48.874;2.332;2024-03-22T08:07:54;101636.55;;;25.49;46.15
39275;BME280;24980;48.874;2.332;2024-03-22T08:10:24;101632.34;;;25.51;46.17
39275;BME280;24980;48.874;2.332;2024-03-22T08:12:54;101628.11;;;25.50;46.21
39275;BME280;24980;48.874;2.332;2024-03-22T08:15:25;101630.15;;;25.50;46.22
39275;BME280;24980;48.874;2.332;2024-03-22T08:17:54;101631.50;;;25.51;46.23
39275;BME280;24980;48.874;2.332;2024-03-22T08:20:24;101631.33;;;25.52;46.24
39275;BME280;24980;48.874;2.332;2024-03-22T08:22:55;101639.05;;;25.52;46.28
39275;BME280;24980;48.874;2.332;2024-03-22T08:25:25;101635.98;;;25.52;46.28
39275;BME280;24980;48.874;2.332;2024-03-22T08:27:55;101634.09;;;25.53;46.28
39275;BME280;24980;48.874;2.332;2024-03-22T08:30:25;101629.50;;;25.54;46.27
39275;BME280;24980;48.874;2.332;2024-03-22T08:32:56;101628.64;;;25.55;46.27
39275;BME280;24980;48.874;2.332;2024-03-22T08:35:26;101627.63;;;25.53;46.28
39275;BME280;24980;48.874;2.332;2024-03-22T08:37:56;101623.59;;;25.52;46.29
39275;BME280;24980;48.874;2.332;2024-03-22T08:40:27;101625.94;;;25.53;46.29
39275;BME280;24980;48.874;2.332;2024-03-22T08:42:57;101623.56;;;25.53;46.29
39275;BME280;24980;48.874;2.332;2024-03-22T08:45:27;101625.59;;;25.54;46.29
39275;BME280;24980;48.874;2.332;2024-03-22T08:47:57;101621.34;;;25.54;46.29
39275;BME280;24980;48.874;2.332;2024-03-22T08:50:28;101618.03;;;25.56;46.29
39275;BME280;24980;48.874;2.332;2024-03-22T08:52:58;101617.31;;;25.57;46.29
39275;BME280;24980;48.874;2.332;2024-03-22T08:55:28;101616.45;;;25.57;46.29
39275;BME280;24980;48.874;2.332;2024-03-22T08:57:58;101607.97;;;25.58;46.32
39275;BME280;24980;48.874;2.332;2024-03-22T09:00:28;101608.34;;;25.59;46.32
39275;BME280;24980;48.874;2.332;2024-03-22T09:02:59;101605.20;;;25.60;46.32
39275;BME280;24980;48.874;2.332;2024-03-22T09:05:30;101604.17;;;25.61;46.35
39275;BME280;24980;48.874;2.332;2024-03-22T09:08:00;101605.95;;;25.62;46.38
39275;BME280;24980;48.874;2.332;2024-03-22T09:10:30;101601.76;;;25.62;46.37
39275;BME280;24980;48.874;2.332;2024-03-22T09:13:01;101601.92;;;25.63;46.39
39275;BME280;24980;48.874;2.332;2024-03-22T09:15:31;101593.59;;;25.64;46.39
39275;BME280;24980;48.874;2.332;2024-03-22T09:18:01;101596.91;;;25.64;46.41
39275;BME280;24980;48.874;2.332;2024-03-22T09:20:31;101593.17;;;25.64;46.45
39275;BME280;24980;48.874;2.332;2024-03-22T09:23:02;101597.20;;;25.65;46.45
39275;BME280;24980;48.874;2.332;2024-03-22T09:25:32;101600.17;;;25.66;46.46
39275;BME280;24980;48.874;2.332;2024-03-22T09:28:02;101594.65;;;25.66;46.47
39275;BME280;24980;48.874;2.332;2024-03-22T09:30:32;101601.70;;;25.66;46.50
39275;BME280;24980;48.874;2.332;2024-03-22T09:33:03;101598.56;;;25.65;46.52
39275;BME280;24980;48.874;2.332;2024-03-22T09:35:33;101597.20;;;25.65;46.54
39275;BME280;24980;48.874;2.332;2024-03-22T09:38:07;101596.31;;;25.65;46.56
39275;BME280;24980;48.874;2.332;2024-03-22T09:40:34;101597.84;;;25.63;46.58
39275;BME280;24980;48.874;2.332;2024-03-22T09:43:06;101594.28;;;25.64;46.59
39275;BME280;24980;48.874;2.332;2024-03-22T09:45:35;101596.39;;;25.64;46.59
39275;BME280;24980;48.874;2.332;2024-03-22T09:48:06;101599.28;;;25.63;46.61
39275;BME280;24980;48.874;2.332;2024-03-22T09:50:36;101596.84;;;25.62;46.62
39275;BME280;24980;48.874;2.332;2024-03-22T09:53:06;101592.92;;;25.63;46.63
39275;BME280;24980;48.874;2.332;2024-03-22T09:55:37;101590.25;;;25.62;46.65
39275;BME280;24980;48.874;2.332;2024-03-22T09:58:07;101587.96;;;25.61;46.66
39275;BME280;24980;48.874;2.332;2024-03-22T10:00:38;101589.83;;;25.61;46.68
39275;BME280;24980;48.874;2.332;2024-03-22T10:03:09;101589.41;;;25.61;46.69
39275;BME280;24980;48.874;2.332;2024-03-22T10:05:38;101589.92;;;25.61;46.71
39275;BME280;24980;48.874;2.332;2024-03-22T10:08:08;101588.65;;;25.60;46.74
39275;BME280;24980;48.874;2.332;2024-03-22T10:10:38;101582.41;;;25.59;46.76
39275;BME280;24980;48.874;2.332;2024-03-22T10:13:08;101580.03;;;25.58;46.78
39275;BME280;24980;48.874;2.332;2024-03-22T10:15:38;101571.03;;;25.58;46.78
39275;BME280;24980;48.874;2.332;2024-03-22T10:18:10;101573.12;;;25.59;46.79
39275;BME280;24980;48.874;2.332;2024-03-22T10:20:38;101571.45;;;25.59;46.79
39275;BME280;24980;48.874;2.332;2024-03-22T10:23:09;101572.64;;;25.58;46.80
39275;BME280;24980;48.874;2.332;2024-03-22T10:25:43;101573.58;;;25.58;46.80
39275;BME280;24980;48.874;2.332;2024-03-22T10:28:09;101571.38;;;25.58;46.81
39275;BME280;24980;48.874;2.332;2024-03-22T10:30:40;101575.70;;;25.59;46.81
39275;BME280;24980;48.874;2.332;2024-03-22T10:33:10;101565.94;;;25.59;46.81
39275;BME280;24980;48.874;2.332;2024-03-22T10:35:39;101569.33;;;25.59;46.83
39275;BME280;24980;48.874;2.332;2024-03-22T10:38:10;101569.55;;;25.60;46.84
39275;BME280;24980;48.874;2.332;2024-03-22T10:40:44;101565.38;;;25.60;46.84
39275;BME280;24980;48.874;2.332;2024-03-22T10:43:14;101557.95;;;25.63;46.82
39275;BME280;24980;48.874;2.332;2024-03-22T10:45:42;101544.52;;;25.64;46.78
39275;BME280;24980;48.874;2.332;2024-03-22T10:48:14;101544.69;;;25.64;46.76
39275;BME280;24980;48.874;2.332;2024-03-22T10:50:43;101538.33;;;25.64;46.76
39275;BME280;24980;48.874;2.332;2024-03-22T10:53:18;101536.19;;;25.65;46.74
39275;BME280;24980;48.874;2.332;2024-03-22T10:55:46;101532.33;;;25.66;46.72
39275;BME280;24980;48.874;2.332;2024-03-22T10:58:17;101524.34;;;25.68;46.70
39275;BME280;24980;48.874;2.332;2024-03-22T11:00:44;101519.03;;;25.69;46.67
39275;BME280;24980;48.874;2.332;2024-03-22T11:03:14;101521.06;;;25.71;46.65
39275;BME280;24980;48.874;2.332;2024-03-22T11:05:48;101513.42;;;25.70;46.65
39275;BME280;24980;48.874;2.332;2024-03-22T11:08:26;101511.05;;;25.69;46.63
39275;BME280;24980;48.874;2.332;2024-03-22T11:10:45;101510.28;;;25.70;46.63
39275;BME280;24980;48.874;2.332;2024-03-22T11:13:16;101507.14;;;25.70;46.65
39275;BME280;24980;48.874;2.332;2024-03-22T11:15:51;101499.58;;;25.70;46.65
39275;BME280;24980;48.874;2.332;2024-03-22T11:18:17;101501.45;;;25.70;46.65
39275;BME280;24980;48.874;2.332;2024-03-22T11:20:47;101498.98;;;25.71;46.64
39275;BME280;24980;48.874;2.332;2024-03-22T11:23:18;101493.80;;;25.71;46.64
39275;BME280;24980;48.874;2.332;2024-03-22T11:25:48;101488.53;;;25.71;46.64
39275;BME280;24980;48.874;2.332;2024-03-22T11:28:19;101485.86;;;25.73;46.62
39275;BME280;24980;48.874;2.332;2024-03-22T11:30:49;101483.55;;;25.74;46.63
39275;BME280;24980;48.874;2.332;2024-03-22T11:33:19;101482.70;;;25.74;46.63
39275;BME280;24980;48.874;2.332;2024-03-22T11:35:49;101482.80;;;25.74;46.65
39275;BME280;24980;48.874;2.332;2024-03-22T11:38:23;101480.16;;;25.74;46.66
39275;BME280;24980;48.874;2.332;2024-03-22T11:40:50;101475.57;;;25.74;46.66
39275;BME280;24980;48.874;2.332;2024-03-22T11:43:21;101471.75;;;25.74;46.66
39275;BME280;24980;48.874;2.332;2024-03-22T11:45:51;101466.98;;;25.75;46.67
39275;BME280;24980;48.874;2.332;2024-03-22T11:48:22;101461.00;;;25.76;46.66
39275;BME280;24980;48.874;2.332;2024-03-22T11:50:52;101457.84;;;25.77;46.66
39275;BME280;24980;48.874;2.332;2024-03-22T11:53:22;101450.38;;;25.77;46.66
39275;BME280;24980;48.874;2.332;2024-03-22T11:55:53;101451.68;;;25.79;46.67
39275;BME280;24980;48.874;2.332;2024-03-22T11:58:26;101449.22;;;25.79;46.66
39275;BME280;24980;48.874;2.332;2024-03-22T12:00:53;101444.88;;;25.81;46.65
39275;BME280;24980;48.874;2.332;2024-03-22T12:03:23;101437.22;;;25.81;46.62
39275;BME280;24980;48.874;2.332;2024-03-22T12:05:54;101436.67;;;25.82;46.63
39275;BME280;24980;48.874;2.332;2024-03-22T12:08:26;101438.11;;;25.82;46.65
39275;BME280;24980;48.874;2.332;2024-03-22T12:10:54;101431.91;;;25.83;46.65
39275;BME280;24980;48.874;2.332;2024-03-22T12:13:25;101435.25;;;25.85;46.64
39275;BME280;24980;48.874;2.332;2024-03-22T12:15:55;101425.81;;;25.86;46.62
39275;BME280;24980;48.874;2.332;2024-03-22T12:18:25;101418.83;;;25.88;46.62
39275;BME280;24980;48.874;2.332;2024-03-22T12:20:56;101417.41;;;25.90;46.60
39275;BME280;24980;48.874;2.332;2024-03-22T12:23:26;101419.89;;;25.93;46.57
39275;BME280;24980;48.874;2.332;2024-03-22T12:25:56;101410.06;;;25.97;46.54
39275;BME280;24980;48.874;2.332;2024-03-22T12:28:26;101402.52;;;25.99;46.50
39275;BME280;24980;48.874;2.332;2024-03-22T12:30:56;101398.73;;;26.02;46.48
39275;BME280;24980;48.874;2.332;2024-03-22T12:33:27;101387.75;;;26.03;46.44
39275;BME280;24980;48.874;2.332;2024-03-22T12:35:58;101391.52;;;26.05;46.43
39275;BME280;24980;48.874;2.332;2024-03-22T12:38:27;101383.78;;;26.05;46.43
39275;BME280;24980;48.874;2.332;2024-03-22T12:40:57;101377.32;;;26.06;46.42
39275;BME280;24980;48.874;2.332;2024-03-22T12:43:28;101371.23;;;26.08;46.40
39275;BME280;24980;48.874;2.332;2024-03-22T12:45:58;101364.58;;;26.10;46.39
39275;BME280;24980;48.874;2.332;2024-03-22T12:48:28;101363.59;;;26.12;46.37
39275;BME280;24980;48.874;2.332;2024-03-22T12:50:58;101359.53;;;26.14;46.36
39275;BME280;24980;48.874;2.332;2024-03-22T12:53:29;101353.59;;;26.17;46.37
39275;BME280;24980;48.874;2.332;2024-03-22T12:55:59;101346.98;;;26.19;46.37
39275;BME280;24980;48.874;2.332;2024-03-22T12:58:29;101337.57;;;26.22;46.36
39275;BME280;24980;48.874;2.332;2024-03-22T13:00:59;101330.70;;;26.24;46.34
39275;BME280;24980;48.874;2.332;2024-03-22T13:03:30;101326.89;;;26.28;46.32
39275;BME280;24980;48.874;2.332;2024-03-22T13:06:00;101325.04;;;26.30;46.30